Helena — SCGL — position and weather

sailwx.info

Track history (hours):
 
Tides and Currents Weather Stations Pressure Air Temp Water Temp Dewpoint Dewpoint Depression Visibility Wind Speed Wind Dir Waves Ship Positions

Helena

Last reported at 2015-Aug-02 11:33 UTC. Time now 2015-Aug-02 12:23 UTC.
Position N 55°18' E 014°24'.

Length 169 m; draft 7.1 m.

Type: Cargo ship. MMSI: 265145000.

Date/timePositionNaut miles runAvg speedWind from/ knotsBaromVisibWave heightAir tempDewpointWater temp
2015-Aug-02 11:33N 55°18' E 014°24'9 9.5
2015-Aug-02 10:33N 55°25' E 014°35'10 9.7
2015-Aug-02 09:33N 55°30' E 014°49'10 9.5
2015-Aug-02 08:33N 55°35' E 015°04'10 9.6
2015-Aug-02 07:33N 55°40' E 015°18'1010.5
2015-Aug-02 06:33N 55°45' E 015°34'1110.7
2015-Aug-02 05:33N 55°51' E 015°51'1210.5
2015-Aug-02 04:25N 55°57' E 016°10'48 9.8
2015-Aug-01 23:33N 56°36' E 016°58'1010.4
2015-Aug-01 22:33N 56°46' E 017°03'1010.4
2015-Aug-01 21:33N 56°56' E 017°08'1010.2
2015-Aug-01 20:33N 57°06' E 017°13'1110.5
2015-Aug-01 19:33N 57°16' E 017°20'1010.3
2015-Aug-01 18:33N 57°26' E 017°24'1010.4
2015-Aug-01 17:33N 57°36' E 017°24'1010.4
2015-Aug-01 16:33N 57°47' E 017°24'1110.4
2015-Aug-01 15:33N 57°57' E 017°24'1110.7
2015-Aug-01 14:31N 58°08' E 017°24'1410.3
2015-Aug-01 13:11N 58°18' E 017°42'1710.2
2015-Aug-01 11:31N 58°30' E 018°05'7510.4
2015-Aug-01 04:19N 59°23' E 019°47'  
2015-Jul-28 23:09N 59°39' E 020°02'915.3
2015-Jul-28 22:33N 59°31' E 020°10'16116.1
2015-Jul-28 12:33N 57°11' E 017°36'10815.2
2015-Jul-28 05:28N 55°43' E 015°44'1516.2
2015-Jul-28 04:33N 55°36' E 015°21'1616.4
2015-Jul-28 03:33N 55°29' E 014°55'1616.2
2015-Jul-28 02:33N 55°19' E 014°33'1616.4
2015-Jul-28 01:33N 55°06' E 014°15'1616.0
2015-Jul-28 00:33N 54°58' E 013°51'3216.1
2015-Jul-27 22:33N 54°47' E 012°58'2115.5
2015-Jul-27 21:12N 54°36' E 012°27'1015.5
2015-Jul-27 20:33N 54°29' E 012°15'1615.4
2015-Jul-27 19:33N 54°21' E 011°52'1616.1
2015-Jul-27 18:33N 54°13' E 011°29'1616.1
2015-Jul-27 17:33N 54°04' E 011°06'10 0.7
2015-Jul-27 03:32N 53°58' E 010°53'9 9.0
2015-Jul-27 02:28N 54°04' E 011°04'8 8.3
2015-Jul-27 01:33N 54°09' E 011°14'8 8.1
2015-Jul-27 00:33N 54°14' E 011°26'8 8.0
2015-Jul-26 23:33N 54°18' E 011°37'8 8.0
2015-Jul-26 22:33N 54°23' E 011°49'8 7.9
2015-Jul-26 21:33N 54°26' E 012°01'7 7.0
2015-Jul-26 20:33N 54°29' E 012°11'71 8.9
2015-Jul-26 12:33N 55°03' E 013°59'9 9.3
2015-Jul-26 11:33N 55°10' E 014°11'10 9.6
2015-Jul-26 10:33N 55°17' E 014°23'10 9.6
2015-Jul-26 09:33N 55°24' E 014°33'10 9.7
2015-Jul-26 08:33N 55°29' E 014°48'10 9.6
2015-Jul-26 07:33N 55°34' E 015°02'10 9.6
2015-Jul-26 06:33N 55°39' E 015°17'9210.1
2015-Jul-25 21:30N 56°49' E 017°04'1211.5
2015-Jul-25 20:28N 57°00' E 017°10'1010.8
2015-Jul-25 19:33N 57°10' E 017°15'1010.3
2015-Jul-25 18:33N 57°19' E 017°23'10 9.9
2015-Jul-25 17:33N 57°29' E 017°24'10 9.9
2015-Jul-25 16:33N 57°39' E 017°24'44 9.9
2015-Jul-25 12:06N 58°22' E 017°48'1711.0
2015-Jul-25 10:33N 58°34' E 018°10'1110.7
2015-Jul-25 09:33N 58°42' E 018°24'  
Track history (hours):
 
Tides and Currents Weather Stations Pressure Air Temp Water Temp Dewpoint Dewpoint Depression Visibility Wind Speed Wind Dir Waves Ship Positions

Helena

Last reported at 2015-Aug-02 11:33 UTC. Time now 2015-Aug-02 12:23 UTC.
Position N 55°18' E 014°24'.

Length 169 m; draft 7.1 m.

Type: Cargo ship. MMSI: 265145000.

Date/timePositionNaut miles runAvg speedWind from/ knotsBaromVisibWave heightAir tempDewpointWater temp
2015-Aug-02 11:33N 55°18' E 014°24'9 9.5
2015-Aug-02 10:33N 55°25' E 014°35'10 9.7
2015-Aug-02 09:33N 55°30' E 014°49'10 9.5
2015-Aug-02 08:33N 55°35' E 015°04'10 9.6
2015-Aug-02 07:33N 55°40' E 015°18'1010.5
2015-Aug-02 06:33N 55°45' E 015°34'1110.7
2015-Aug-02 05:33N 55°51' E 015°51'1210.5
2015-Aug-02 04:25N 55°57' E 016°10'48 9.8
2015-Aug-01 23:33N 56°36' E 016°58'1010.4
2015-Aug-01 22:33N 56°46' E 017°03'1010.4
2015-Aug-01 21:33N 56°56' E 017°08'1010.2
2015-Aug-01 20:33N 57°06' E 017°13'1110.5
2015-Aug-01 19:33N 57°16' E 017°20'1010.3
2015-Aug-01 18:33N 57°26' E 017°24'1010.4
2015-Aug-01 17:33N 57°36' E 017°24'1010.4
2015-Aug-01 16:33N 57°47' E 017°24'1110.4
2015-Aug-01 15:33N 57°57' E 017°24'1110.7
2015-Aug-01 14:31N 58°08' E 017°24'1410.3
2015-Aug-01 13:11N 58°18' E 017°42'1710.2
2015-Aug-01 11:31N 58°30' E 018°05'7510.4
2015-Aug-01 04:19N 59°23' E 019°47'  
2015-Jul-28 23:09N 59°39' E 020°02'915.3
2015-Jul-28 22:33N 59°31' E 020°10'16116.1
2015-Jul-28 12:33N 57°11' E 017°36'10815.2
2015-Jul-28 05:28N 55°43' E 015°44'1516.2
2015-Jul-28 04:33N 55°36' E 015°21'1616.4
2015-Jul-28 03:33N 55°29' E 014°55'1616.2
2015-Jul-28 02:33N 55°19' E 014°33'1616.4
2015-Jul-28 01:33N 55°06' E 014°15'1616.0
2015-Jul-28 00:33N 54°58' E 013°51'3216.1
2015-Jul-27 22:33N 54°47' E 012°58'2115.5
2015-Jul-27 21:12N 54°36' E 012°27'1015.5
2015-Jul-27 20:33N 54°29' E 012°15'1615.4
2015-Jul-27 19:33N 54°21' E 011°52'1616.1
2015-Jul-27 18:33N 54°13' E 011°29'1616.1
2015-Jul-27 17:33N 54°04' E 011°06'10 0.7
2015-Jul-27 03:32N 53°58' E 010°53'9 9.0
2015-Jul-27 02:28N 54°04' E 011°04'8 8.3
2015-Jul-27 01:33N 54°09' E 011°14'8 8.1
2015-Jul-27 00:33N 54°14' E 011°26'8 8.0
2015-Jul-26 23:33N 54°18' E 011°37'8 8.0
2015-Jul-26 22:33N 54°23' E 011°49'8 7.9
2015-Jul-26 21:33N 54°26' E 012°01'7 7.0
2015-Jul-26 20:33N 54°29' E 012°11'71 8.9
2015-Jul-26 12:33N 55°03' E 013°59'9 9.3
2015-Jul-26 11:33N 55°10' E 014°11'10 9.6
2015-Jul-26 10:33N 55°17' E 014°23'10 9.6
2015-Jul-26 09:33N 55°24' E 014°33'10 9.7
2015-Jul-26 08:33N 55°29' E 014°48'10 9.6
2015-Jul-26 07:33N 55°34' E 015°02'10 9.6
2015-Jul-26 06:33N 55°39' E 015°17'9210.1
2015-Jul-25 21:30N 56°49' E 017°04'1211.5
2015-Jul-25 20:28N 57°00' E 017°10'1010.8
2015-Jul-25 19:33N 57°10' E 017°15'1010.3
2015-Jul-25 18:33N 57°19' E 017°23'10 9.9
2015-Jul-25 17:33N 57°29' E 017°24'10 9.9
2015-Jul-25 16:33N 57°39' E 017°24'44 9.9
2015-Jul-25 12:06N 58°22' E 017°48'1711.0
2015-Jul-25 10:33N 58°34' E 018°10'1110.7
2015-Jul-25 09:33N 58°42' E 018°24'  

Dump ship's entire track history